createdAt,value
2022-07-26T00:00:53.519Z,0.00
2022-07-26T00:01:54.270Z,0.00
2022-07-26T00:02:53.433Z,0.00
2022-07-26T00:03:53.317Z,0.00
2022-07-26T00:04:54.130Z,0.00
2022-07-26T00:05:53.215Z,0.00
2022-07-26T00:06:53.187Z,0.00
2022-07-26T00:07:53.115Z,0.00
2022-07-26T00:08:53.067Z,0.00
2022-07-26T00:09:53.095Z,0.00
2022-07-26T00:10:52.973Z,0.00
2022-07-26T00:11:52.928Z,0.00
2022-07-26T00:12:52.892Z,0.00
2022-07-26T00:13:52.832Z,0.00
2022-07-26T00:14:52.787Z,0.00
2022-07-26T00:15:52.738Z,0.00
2022-07-26T00:16:52.775Z,0.00
2022-07-26T00:17:52.642Z,0.00
2022-07-26T00:18:52.619Z,0.00
2022-07-26T00:19:52.547Z,0.00
2022-07-26T00:20:52.498Z,0.00
2022-07-26T00:21:53.075Z,0.00
2022-07-26T00:22:52.404Z,0.00
2022-07-26T00:23:52.371Z,0.00
2022-07-26T00:24:52.307Z,0.00
2022-07-26T00:25:52.260Z,0.00
2022-07-26T00:26:52.212Z,0.00
2022-07-26T00:27:52.176Z,0.00
2022-07-26T00:28:52.117Z,0.00
2022-07-26T00:29:52.071Z,0.00
2022-07-26T00:30:52.019Z,0.00
2022-07-26T00:31:52.029Z,0.00
2022-07-26T00:32:51.941Z,0.00
2022-07-26T00:33:51.883Z,0.00
2022-07-26T00:34:51.835Z,0.00
2022-07-26T00:35:51.836Z,0.00
2022-07-26T00:36:51.741Z,0.00
2022-07-26T00:37:51.686Z,0.00
2022-07-26T00:38:51.661Z,0.00
2022-07-26T00:39:51.595Z,0.00
2022-07-26T00:40:51.541Z,0.00
2022-07-26T00:41:51.509Z,0.00
2022-07-26T00:42:51.453Z,0.00
2022-07-26T00:43:51.415Z,0.00
2022-07-26T00:44:51.351Z,0.00
2022-07-26T00:45:51.373Z,0.00
2022-07-26T00:46:51.257Z,0.00
2022-07-26T00:47:51.209Z,0.00
2022-07-26T00:48:51.237Z,0.00
2022-07-26T00:49:51.120Z,0.00
2022-07-26T00:50:51.065Z,0.00
2022-07-26T00:51:51.021Z,0.00
2022-07-26T00:52:50.975Z,0.00
2022-07-26T00:53:50.952Z,0.00
2022-07-26T00:54:50.869Z,0.00
2022-07-26T00:55:50.828Z,0.00
2022-07-26T00:56:54.845Z,0.00
2022-07-26T00:57:50.730Z,0.00
2022-07-26T00:58:50.697Z,0.00
2022-07-26T00:59:50.634Z,0.00
2022-07-26T01:00:50.629Z,0.00
2022-07-26T01:01:50.690Z,0.00
2022-07-26T01:02:50.537Z,0.00
2022-07-26T01:03:50.439Z,0.00
2022-07-26T01:04:50.392Z,0.00
2022-07-26T01:05:50.360Z,0.00
2022-07-26T01:06:50.299Z,0.00
2022-07-26T01:07:50.245Z,0.00
2022-07-26T01:08:50.205Z,0.00
2022-07-26T01:09:50.153Z,0.00
2022-07-26T01:10:50.101Z,0.00
2022-07-26T01:11:50.070Z,0.00
2022-07-26T01:12:50.009Z,0.00
2022-07-26T01:13:49.964Z,0.00
2022-07-26T01:14:49.907Z,0.00
2022-07-26T01:15:49.925Z,0.00
2022-07-26T01:16:49.809Z,0.00
2022-07-26T01:17:49.763Z,0.00
2022-07-26T01:18:49.723Z,0.00
2022-07-26T01:19:49.673Z,0.00
2022-07-26T01:20:49.622Z,0.00
2022-07-26T01:21:49.583Z,0.00
2022-07-26T01:22:49.524Z,0.00
2022-07-26T01:23:49.482Z,0.00
2022-07-26T01:24:49.424Z,0.00
2022-07-26T01:25:49.399Z,0.00
2022-07-26T01:26:49.330Z,0.00
2022-07-26T01:27:49.280Z,0.00
2022-07-26T01:28:49.250Z,0.00
2022-07-26T01:29:49.189Z,0.00
2022-07-26T01:30:49.376Z,0.00
2022-07-26T01:31:49.156Z,0.00
2022-07-26T01:32:49.039Z,0.00
2022-07-26T01:33:48.995Z,0.00
2022-07-26T01:34:48.938Z,0.00
2022-07-26T01:35:48.909Z,0.00
2022-07-26T01:36:48.847Z,0.00
2022-07-26T01:37:48.797Z,0.00
2022-07-26T01:38:48.748Z,0.00
2022-07-26T01:39:48.713Z,0.00
2022-07-26T01:40:48.650Z,0.00
2022-07-26T01:41:48.604Z,0.00
2022-07-26T01:42:48.567Z,0.00
2022-07-26T01:43:48.542Z,0.00
2022-07-26T01:44:48.466Z,0.00
2022-07-26T01:45:48.473Z,0.00
2022-07-26T01:46:48.366Z,0.00
2022-07-26T01:47:48.308Z,0.00
2022-07-26T01:48:48.331Z,0.00
2022-07-26T01:49:48.214Z,0.00
2022-07-26T01:50:48.169Z,0.00
2022-07-26T01:51:48.118Z,0.00
2022-07-26T01:52:48.068Z,0.00
2022-07-26T01:53:48.029Z,0.00
2022-07-26T01:54:47.966Z,0.00
2022-07-26T01:55:47.922Z,0.00
2022-07-26T01:56:47.869Z,0.00
2022-07-26T01:57:47.839Z,0.00
2022-07-26T01:58:47.797Z,0.00
2022-07-26T01:59:47.747Z,0.00
2022-07-26T02:00:47.680Z,0.00
2022-07-26T02:01:47.753Z,0.00
2022-07-26T02:02:47.722Z,0.00
2022-07-26T02:03:47.528Z,0.00
2022-07-26T02:04:47.515Z,0.00
2022-07-26T02:05:47.427Z,0.00
2022-07-26T02:06:47.378Z,0.00
2022-07-26T02:07:47.345Z,0.00
2022-07-26T02:08:47.282Z,0.00
2022-07-26T02:09:47.235Z,0.00
2022-07-26T02:10:47.448Z,0.00
2022-07-26T02:11:47.139Z,0.00
2022-07-26T02:12:47.101Z,0.00
2022-07-26T02:13:52.741Z,0.00
2022-07-26T02:14:47.003Z,0.00
2022-07-26T02:15:47.005Z,0.00
2022-07-26T02:16:46.889Z,0.00
2022-07-26T02:17:46.840Z,0.00
2022-07-26T02:18:46.805Z,0.00
2022-07-26T02:19:46.797Z,0.00
2022-07-26T02:20:46.708Z,0.00
2022-07-26T02:21:46.650Z,0.00
2022-07-26T02:22:46.593Z,0.00
2022-07-26T02:23:46.551Z,0.00
2022-07-26T02:24:46.506Z,0.00
2022-07-26T02:25:46.463Z,0.00
2022-07-26T02:26:46.396Z,0.00
2022-07-26T02:27:46.348Z,0.00
2022-07-26T02:28:46.310Z,0.00
2022-07-26T02:29:46.253Z,0.00
2022-07-26T02:30:46.274Z,0.00
2022-07-26T02:31:48.355Z,0.00
2022-07-26T02:32:46.102Z,0.00
2022-07-26T02:33:46.053Z,0.00
2022-07-26T02:34:46.004Z,0.00
2022-07-26T02:35:45.970Z,0.00
2022-07-26T02:36:45.904Z,0.00
2022-07-26T02:37:45.860Z,0.00
2022-07-26T02:38:45.806Z,0.00
2022-07-26T02:39:45.759Z,0.00
2022-07-26T02:40:45.726Z,0.00
2022-07-26T02:41:45.662Z,0.00
2022-07-26T02:42:45.610Z,0.00
2022-07-26T02:43:45.560Z,0.00
2022-07-26T02:44:45.518Z,0.00
2022-07-26T02:45:45.477Z,0.00
2022-07-26T02:46:45.522Z,0.00
2022-07-26T02:47:45.379Z,0.00
2022-07-26T02:48:45.337Z,0.00
2022-07-26T02:49:45.260Z,0.00
2022-07-26T02:50:45.230Z,0.00
2022-07-26T02:51:45.163Z,0.00
2022-07-26T02:52:45.113Z,0.00
2022-07-26T02:53:45.064Z,0.00
2022-07-26T02:54:45.014Z,0.00
2022-07-26T02:55:44.979Z,0.00
2022-07-26T02:56:44.927Z,0.00
2022-07-26T02:57:46.506Z,0.00
2022-07-26T02:58:44.814Z,0.00
2022-07-26T02:59:44.764Z,0.00
2022-07-26T03:00:44.720Z,0.00
2022-07-26T03:01:44.725Z,0.00
2022-07-26T03:02:44.729Z,0.00
2022-07-26T03:03:50.119Z,0.00
2022-07-26T03:04:44.543Z,0.00
2022-07-26T03:05:44.464Z,0.00
2022-07-26T03:06:44.521Z,0.00
2022-07-26T03:07:44.363Z,0.00
2022-07-26T03:08:44.336Z,0.00
2022-07-26T03:09:44.284Z,0.00
2022-07-26T03:10:44.232Z,0.00
2022-07-26T03:11:53.715Z,0.00
2022-07-26T03:12:44.116Z,0.00
2022-07-26T03:13:44.084Z,0.00
2022-07-26T03:14:44.017Z,0.00
2022-07-26T03:15:44.013Z,0.00
2022-07-26T03:16:43.920Z,4.00
2022-07-26T03:17:43.883Z,4.00
2022-07-26T03:18:43.818Z,0.00
2022-07-26T03:19:43.768Z,4.00
2022-07-26T03:20:43.732Z,4.00
2022-07-26T03:21:43.673Z,4.00
2022-07-26T03:22:43.624Z,8.00
2022-07-26T03:23:43.582Z,4.00
2022-07-26T03:24:43.520Z,8.00
2022-07-26T03:25:43.470Z,8.00
2022-07-26T03:26:43.417Z,8.00
2022-07-26T03:27:43.367Z,8.00
2022-07-26T03:28:43.336Z,12.00
2022-07-26T03:29:43.270Z,16.00
2022-07-26T03:30:43.229Z,16.00
2022-07-26T03:31:43.185Z,16.00
2022-07-26T03:32:43.122Z,20.00
2022-07-26T03:33:43.086Z,20.00
2022-07-26T03:34:43.021Z,24.00
2022-07-26T03:35:42.973Z,24.00
2022-07-26T03:36:42.924Z,28.00
2022-07-26T03:37:45.557Z,32.00
2022-07-26T03:38:42.822Z,36.00
2022-07-26T03:39:42.771Z,36.00
2022-07-26T03:40:42.739Z,44.00
2022-07-26T03:41:42.680Z,48.00
2022-07-26T03:42:42.623Z,52.00
2022-07-26T03:43:42.571Z,56.00
2022-07-26T03:44:42.529Z,60.00
2022-07-26T03:45:42.487Z,64.00
2022-07-26T03:46:42.448Z,72.00
2022-07-26T03:47:42.374Z,72.00
2022-07-26T03:48:42.375Z,76.00
2022-07-26T03:49:42.277Z,88.00
2022-07-26T03:50:42.242Z,92.00
2022-07-26T03:51:42.172Z,96.00
2022-07-26T03:52:42.163Z,104.00
2022-07-26T03:53:42.075Z,108.00
2022-07-26T03:54:42.027Z,112.00
2022-07-26T03:55:41.986Z,120.00
2022-07-26T03:56:41.924Z,124.00
2022-07-26T03:57:41.875Z,132.00
2022-07-26T03:58:41.840Z,136.00
2022-07-26T03:59:41.788Z,144.00
2022-07-26T04:00:41.723Z,152.00
2022-07-26T04:01:41.838Z,160.00
2022-07-26T04:02:42.315Z,168.00
2022-07-26T04:03:45.719Z,176.00
2022-07-26T04:04:41.541Z,180.00
2022-07-26T04:05:41.478Z,188.00
2022-07-26T04:06:41.425Z,196.00
2022-07-26T04:07:41.382Z,204.00
2022-07-26T04:08:41.326Z,208.00
2022-07-26T04:09:41.290Z,212.00
2022-07-26T04:10:41.226Z,220.00
2022-07-26T04:11:41.179Z,224.00
2022-07-26T04:12:41.132Z,232.00
2022-07-26T04:13:41.078Z,236.00
2022-07-26T04:14:41.042Z,248.00
2022-07-26T04:15:40.996Z,260.00
2022-07-26T04:16:43.603Z,268.00
2022-07-26T04:17:40.880Z,276.00
2022-07-26T04:18:40.834Z,280.00
2022-07-26T04:19:40.778Z,292.00
2022-07-26T04:20:40.735Z,308.00
2022-07-26T04:21:40.692Z,328.00
2022-07-26T04:22:40.627Z,344.00
2022-07-26T04:23:40.581Z,360.00
2022-07-26T04:24:40.544Z,376.00
2022-07-26T04:25:41.353Z,396.00
2022-07-26T04:26:40.429Z,416.00
2022-07-26T04:27:40.392Z,436.00
2022-07-26T04:28:40.328Z,464.00
2022-07-26T04:29:40.277Z,492.00
2022-07-26T04:30:40.247Z,520.00
2022-07-26T04:31:40.276Z,544.00
2022-07-26T04:32:40.156Z,572.00
2022-07-26T04:33:40.087Z,596.00
2022-07-26T04:34:40.027Z,624.00
2022-07-26T04:35:39.980Z,648.00
2022-07-26T04:36:39.931Z,672.00
2022-07-26T04:37:39.891Z,688.00
2022-07-26T04:38:39.829Z,704.00
2022-07-26T04:39:39.779Z,728.00
2022-07-26T04:40:40.821Z,744.00
2022-07-26T04:41:39.683Z,768.00
2022-07-26T04:42:39.643Z,784.00
2022-07-26T04:43:39.599Z,816.00
2022-07-26T04:44:39.528Z,868.00
2022-07-26T04:45:39.528Z,904.00
2022-07-26T04:46:39.452Z,872.00
2022-07-26T04:47:39.424Z,900.00
2022-07-26T04:48:39.403Z,932.00
2022-07-26T04:49:39.281Z,944.00
2022-07-26T04:50:39.249Z,984.00
2022-07-26T04:51:39.193Z,1000.00
2022-07-26T04:52:39.137Z,972.00
2022-07-26T04:53:39.100Z,968.00
2022-07-26T04:54:39.034Z,992.00
2022-07-26T04:55:38.986Z,980.00
2022-07-26T04:56:38.942Z,1000.00
2022-07-26T04:57:38.900Z,956.00
2022-07-26T04:58:38.833Z,956.00
2022-07-26T04:59:38.783Z,956.00
2022-07-26T05:00:56.807Z,928.00
2022-07-26T05:01:38.759Z,960.00
2022-07-26T05:02:38.700Z,1028.00
2022-07-26T05:03:38.612Z,984.00
2022-07-26T05:04:38.537Z,976.00
2022-07-26T05:05:38.485Z,1052.00
2022-07-26T05:06:38.560Z,1144.00
2022-07-26T05:07:38.406Z,1208.00
2022-07-26T05:08:38.337Z,1252.00
2022-07-26T05:09:38.287Z,1252.00
2022-07-26T05:10:38.237Z,1268.00
2022-07-26T05:11:38.196Z,1276.00
2022-07-26T05:12:38.138Z,1288.00
2022-07-26T05:13:38.102Z,1304.00
2022-07-26T05:14:38.057Z,1300.00
2022-07-26T05:15:37.989Z,1304.00
2022-07-26T05:16:39.287Z,1316.00
2022-07-26T05:17:37.890Z,1324.00
2022-07-26T05:18:45.737Z,1336.00
2022-07-26T05:19:37.805Z,1348.00
2022-07-26T05:20:37.761Z,1352.00
2022-07-26T05:21:37.697Z,1352.00
2022-07-26T05:22:37.642Z,1356.00
2022-07-26T05:23:37.607Z,1360.00
2022-07-26T05:24:37.544Z,1368.00
2022-07-26T05:25:37.497Z,1372.00
2022-07-26T05:26:37.451Z,1384.00
2022-07-26T05:27:37.398Z,1388.00
2022-07-26T05:28:37.370Z,1400.00
2022-07-26T05:29:37.299Z,1404.00
2022-07-26T05:30:37.307Z,1420.00
2022-07-26T05:31:37.196Z,1428.00
2022-07-26T05:32:37.152Z,1440.00
2022-07-26T05:33:37.101Z,1448.00
2022-07-26T05:34:37.062Z,1460.00
2022-07-26T05:35:36.997Z,1472.00
2022-07-26T05:36:36.950Z,1480.00
2022-07-26T05:37:36.919Z,1492.00
2022-07-26T05:38:36.876Z,1508.00
2022-07-26T05:39:36.815Z,1520.00
2022-07-26T05:40:36.757Z,1528.00
2022-07-26T05:41:36.703Z,1548.00
2022-07-26T05:42:36.651Z,1560.00
2022-07-26T05:43:40.742Z,1572.00
2022-07-26T05:44:36.566Z,1588.00
2022-07-26T05:45:36.551Z,1604.00
2022-07-26T05:46:36.522Z,1620.00
2022-07-26T05:47:36.405Z,1628.00
2022-07-26T05:48:36.426Z,1636.00
2022-07-26T05:49:39.803Z,1648.00
2022-07-26T05:50:36.259Z,1660.00
2022-07-26T05:51:36.211Z,1676.00
2022-07-26T05:52:36.173Z,1676.00
2022-07-26T05:53:36.107Z,1692.00
2022-07-26T05:54:36.058Z,1704.00
2022-07-26T05:55:36.011Z,1720.00
2022-07-26T05:56:35.974Z,1732.00
2022-07-26T05:57:35.914Z,1740.00
2022-07-26T05:58:35.861Z,1752.00
2022-07-26T05:59:35.811Z,1764.00
2022-07-26T06:00:35.775Z,1776.00
2022-07-26T06:01:35.727Z,1780.00
2022-07-26T06:02:35.708Z,1788.00
2022-07-26T06:03:35.615Z,1796.00
2022-07-26T06:04:35.654Z,1808.00
2022-07-26T06:05:35.529Z,1816.00
2022-07-26T06:06:35.480Z,1820.00
2022-07-26T06:07:35.426Z,1824.00
2022-07-26T06:08:35.367Z,1828.00
2022-07-26T06:09:35.318Z,1848.00
2022-07-26T06:10:35.280Z,1844.00
2022-07-26T06:11:35.221Z,1852.00
2022-07-26T06:12:35.170Z,1864.00
2022-07-26T06:13:35.135Z,1876.00
2022-07-26T06:14:35.073Z,1888.00
2022-07-26T06:15:35.021Z,1900.00
2022-07-26T06:16:34.973Z,1908.00
2022-07-26T06:17:34.968Z,1924.00
2022-07-26T06:18:34.891Z,1944.00
2022-07-26T06:19:34.841Z,1960.00
2022-07-26T06:20:34.776Z,1980.00
2022-07-26T06:21:34.728Z,1996.00
2022-07-26T06:22:34.678Z,2008.00
2022-07-26T06:23:35.308Z,2024.00
2022-07-26T06:24:34.579Z,2040.00
2022-07-26T06:25:34.529Z,2056.00
2022-07-26T06:26:34.480Z,2072.00
2022-07-26T06:27:34.438Z,2084.00
2022-07-26T06:28:34.405Z,2092.00
2022-07-26T06:29:34.334Z,2100.00
2022-07-26T06:30:34.286Z,2104.00
2022-07-26T06:31:34.272Z,2132.00
2022-07-26T06:32:34.185Z,2156.00
2022-07-26T06:33:34.159Z,2156.00
2022-07-26T06:34:34.089Z,2176.00
2022-07-26T06:35:34.043Z,2196.00
2022-07-26T06:36:33.992Z,2212.00
2022-07-26T06:37:33.941Z,2224.00
2022-07-26T06:38:33.907Z,2240.00
2022-07-26T06:39:33.843Z,2260.00
2022-07-26T06:40:33.795Z,2288.00
2022-07-26T06:41:33.743Z,2308.00
2022-07-26T06:42:33.692Z,2332.00
2022-07-26T06:43:33.665Z,2336.00
2022-07-26T06:44:33.601Z,2340.00
2022-07-26T06:45:33.581Z,2344.00
2022-07-26T06:46:33.498Z,2348.00
2022-07-26T06:47:33.448Z,2348.00
2022-07-26T06:48:33.456Z,2360.00
2022-07-26T06:49:33.488Z,2376.00
2022-07-26T06:50:33.318Z,2400.00
2022-07-26T06:51:33.253Z,2428.00
2022-07-26T06:52:33.222Z,2448.00
2022-07-26T06:53:33.259Z,2480.00
2022-07-26T06:54:33.109Z,2524.00
2022-07-26T06:55:33.057Z,2572.00
2022-07-26T06:56:33.030Z,2672.00
2022-07-26T06:57:32.961Z,2988.00
2022-07-26T06:58:32.917Z,3280.00
2022-07-26T06:59:32.862Z,3500.00
2022-07-26T07:00:32.812Z,3364.00
2022-07-26T07:01:58.550Z,3160.00
2022-07-26T07:02:32.719Z,2924.00
2022-07-26T07:03:32.667Z,2936.00
2022-07-26T07:04:33.323Z,3024.00
2022-07-26T07:05:32.575Z,2940.00
2022-07-26T07:06:32.522Z,2848.00
2022-07-26T07:07:32.488Z,2780.00
2022-07-26T07:08:32.425Z,2776.00
2022-07-26T07:09:32.376Z,2804.00
2022-07-26T07:10:32.329Z,2844.00
2022-07-26T07:11:32.278Z,2928.00
2022-07-26T07:12:32.244Z,2876.00
2022-07-26T07:13:32.181Z,2892.00
2022-07-26T07:14:32.135Z,2980.00
2022-07-26T07:15:32.085Z,3080.00
2022-07-26T07:16:32.091Z,3072.00
2022-07-26T07:17:32.001Z,3208.00
2022-07-26T07:18:31.939Z,3256.00
2022-07-26T07:19:31.895Z,3328.00
2022-07-26T07:20:31.842Z,3504.00
2022-07-26T07:21:31.850Z,3540.00
2022-07-26T07:22:31.757Z,3564.00
2022-07-26T07:23:31.697Z,3604.00
2022-07-26T07:24:31.650Z,3600.00
2022-07-26T07:25:31.600Z,3572.00
2022-07-26T07:26:31.552Z,3596.00
2022-07-26T07:27:31.524Z,3552.00
2022-07-26T07:28:31.458Z,3500.00
2022-07-26T07:29:31.421Z,3316.00
2022-07-26T07:30:31.357Z,3200.00
2022-07-26T07:31:49.024Z,3060.00
2022-07-26T07:32:31.349Z,2968.00
2022-07-26T07:33:36.489Z,2912.00
2022-07-26T07:34:31.170Z,2888.00
2022-07-26T07:35:32.055Z,2912.00
2022-07-26T07:36:31.068Z,2928.00
2022-07-26T07:37:52.942Z,2980.00
2022-07-26T07:38:30.974Z,2968.00
2022-07-26T07:39:34.961Z,2988.00
2022-07-26T07:40:30.897Z,3040.00
2022-07-26T07:41:30.827Z,3160.00
2022-07-26T07:42:30.783Z,2888.00
2022-07-26T07:43:30.732Z,3344.00
2022-07-26T07:44:30.699Z,3316.00
2022-07-26T07:45:30.638Z,3316.00
2022-07-26T07:46:30.651Z,3712.00
2022-07-26T07:47:30.540Z,3332.00
2022-07-26T07:48:30.525Z,3520.00
2022-07-26T07:49:30.535Z,3620.00
2022-07-26T07:50:30.395Z,3756.00
2022-07-26T07:51:30.364Z,3868.00
2022-07-26T07:52:30.308Z,3684.00
2022-07-26T07:53:30.408Z,3472.00
2022-07-26T07:54:30.203Z,3196.00
2022-07-26T07:55:41.410Z,3164.00
2022-07-26T07:56:30.107Z,3304.00
2022-07-26T07:57:30.076Z,3436.00
2022-07-26T07:58:30.014Z,3356.00
2022-07-26T07:59:29.963Z,3356.00
2022-07-26T08:00:29.917Z,3312.00
2022-07-26T08:01:39.547Z,3360.00
2022-07-26T08:02:29.836Z,3404.00
2022-07-26T08:03:38.232Z,3376.00
2022-07-26T08:04:29.806Z,3536.00
2022-07-26T08:05:29.680Z,3744.00
2022-07-26T08:06:29.630Z,4232.00
2022-07-26T08:07:33.070Z,4116.00
2022-07-26T08:08:29.550Z,3812.00
2022-07-26T08:09:29.502Z,3632.00
2022-07-26T08:10:29.444Z,3444.00
2022-07-26T08:11:30.000Z,3340.00
2022-07-26T08:12:29.360Z,3372.00
2022-07-26T08:13:29.295Z,3404.00
2022-07-26T08:14:29.249Z,3332.00
2022-07-26T08:15:29.209Z,3172.00
2022-07-26T08:16:29.237Z,2976.00
2022-07-26T08:17:29.107Z,2940.00
2022-07-26T08:18:29.058Z,3020.00
2022-07-26T08:19:42.121Z,3220.00
2022-07-26T08:20:28.974Z,3916.00
2022-07-26T08:21:29.222Z,3728.00
2022-07-26T08:22:28.894Z,3868.00
2022-07-26T08:23:28.828Z,3468.00
2022-07-26T08:24:28.791Z,3344.00
2022-07-26T08:25:28.724Z,4084.00
2022-07-26T08:26:28.676Z,3500.00
2022-07-26T08:27:28.648Z,3388.00
2022-07-26T08:28:58.428Z,3204.00
2022-07-26T08:29:28.541Z,3140.00
2022-07-26T08:30:28.487Z,3488.00
2022-07-26T08:31:28.686Z,2632.00
2022-07-26T08:32:28.414Z,2512.00
2022-07-26T08:33:28.362Z,2520.00
2022-07-26T08:34:28.300Z,2708.00
2022-07-26T08:35:28.251Z,2988.00
2022-07-26T08:36:32.137Z,3316.00
2022-07-26T08:37:28.174Z,3900.00
2022-07-26T08:38:28.111Z,5036.00
2022-07-26T08:39:28.063Z,5136.00
2022-07-26T08:40:28.020Z,5412.00
2022-07-26T08:41:27.975Z,4436.00
2022-07-26T08:42:27.941Z,4168.00
2022-07-26T08:43:27.878Z,3916.00
2022-07-26T08:44:27.832Z,3536.00
2022-07-26T08:45:27.784Z,3328.00
2022-07-26T08:46:28.366Z,3172.00
2022-07-26T08:47:39.890Z,2916.00
2022-07-26T08:48:27.727Z,2916.00
2022-07-26T08:49:27.652Z,3016.00
2022-07-26T08:50:27.569Z,3152.00
2022-07-26T08:51:27.503Z,3172.00
2022-07-26T08:52:27.473Z,3116.00
2022-07-26T08:53:27.411Z,3892.00
2022-07-26T08:54:27.363Z,3656.00
2022-07-26T08:55:32.266Z,4780.00
2022-07-26T08:56:27.284Z,5152.00
2022-07-26T08:57:27.222Z,5716.00
2022-07-26T08:58:27.200Z,5064.00
2022-07-26T08:59:27.134Z,5212.00
2022-07-26T09:00:27.195Z,4468.00
2022-07-26T09:01:27.063Z,4440.00
2022-07-26T09:02:27.044Z,4768.00
2022-07-26T09:03:27.020Z,4924.00
2022-07-26T09:04:38.617Z,4364.00
2022-07-26T09:05:26.854Z,4268.00
2022-07-26T09:06:28.234Z,4156.00
2022-07-26T09:07:26.763Z,4140.00
2022-07-26T09:08:26.730Z,4048.00
2022-07-26T09:09:26.685Z,3964.00
2022-07-26T09:10:26.626Z,4176.00
2022-07-26T09:11:26.577Z,3688.00
2022-07-26T09:12:26.534Z,3140.00
2022-07-26T09:13:26.490Z,2780.00
2022-07-26T09:14:35.412Z,2560.00
2022-07-26T09:15:26.432Z,2416.00
2022-07-26T09:16:26.490Z,2348.00
2022-07-26T09:17:26.350Z,4168.00
2022-07-26T09:18:26.300Z,4176.00
2022-07-26T09:19:26.264Z,4196.00
2022-07-26T09:20:27.894Z,4212.00
2022-07-26T09:21:26.148Z,4228.00
2022-07-26T09:22:26.113Z,4384.00
2022-07-26T09:23:26.057Z,4648.00
2022-07-26T09:24:26.039Z,4840.00
2022-07-26T09:25:25.968Z,5104.00
2022-07-26T09:26:25.946Z,5284.00
2022-07-26T09:27:28.264Z,5388.00
2022-07-26T09:28:25.844Z,5528.00
2022-07-26T09:29:25.793Z,5664.00
2022-07-26T09:30:25.739Z,3812.00
2022-07-26T09:31:25.788Z,3736.00
2022-07-26T09:32:25.673Z,3632.00
2022-07-26T09:33:25.588Z,3420.00
2022-07-26T09:34:25.566Z,3304.00
2022-07-26T09:35:49.933Z,3312.00
2022-07-26T09:36:25.482Z,3260.00
2022-07-26T09:37:25.447Z,3172.00
2022-07-26T09:38:25.388Z,3200.00
2022-07-26T09:39:34.092Z,3212.00
2022-07-26T09:40:25.300Z,4980.00
2022-07-26T09:41:25.244Z,5408.00
2022-07-26T09:42:28.978Z,5464.00
2022-07-26T09:43:25.173Z,5596.00
2022-07-26T09:44:25.108Z,5760.00
2022-07-26T09:45:25.094Z,5864.00
2022-07-26T09:46:25.047Z,5964.00
2022-07-26T09:47:24.968Z,6156.00
2022-07-26T09:48:24.950Z,6368.00
2022-07-26T09:49:28.277Z,6564.00
2022-07-26T09:50:24.922Z,6604.00
2022-07-26T09:51:25.409Z,6624.00
2022-07-26T09:52:24.762Z,6632.00
2022-07-26T09:53:24.742Z,6440.00
2022-07-26T09:54:24.648Z,4348.00
2022-07-26T09:55:24.614Z,4268.00
2022-07-26T09:56:24.597Z,4052.00
2022-07-26T09:57:24.557Z,4028.00
2022-07-26T09:58:24.512Z,3952.00
2022-07-26T09:59:24.439Z,5564.00
2022-07-26T10:00:24.388Z,3884.00
2022-07-26T10:01:24.403Z,5348.00
2022-07-26T10:02:31.051Z,5352.00
2022-07-26T10:03:31.420Z,3036.00
2022-07-26T10:04:24.247Z,2772.00
2022-07-26T10:05:30.926Z,2704.00
2022-07-26T10:06:30.082Z,2892.00
2022-07-26T10:07:24.095Z,3024.00
2022-07-26T10:08:24.033Z,3044.00
2022-07-26T10:09:24.030Z,2816.00
2022-07-26T10:10:23.970Z,2644.00
2022-07-26T10:11:23.910Z,2544.00
2022-07-26T10:12:27.226Z,2508.00
2022-07-26T10:13:23.857Z,2848.00
2022-07-26T10:14:23.784Z,2728.00
2022-07-26T10:15:23.777Z,2924.00
2022-07-26T10:16:23.718Z,2708.00
2022-07-26T10:17:28.997Z,2716.00
2022-07-26T10:18:23.614Z,2744.00
2022-07-26T10:19:23.601Z,2924.00
2022-07-26T10:20:24.795Z,3188.00
2022-07-26T10:21:23.465Z,3572.00
2022-07-26T10:22:23.417Z,3592.00
2022-07-26T10:23:23.399Z,3792.00
2022-07-26T10:24:23.366Z,4204.00
2022-07-26T10:25:23.333Z,5028.00
2022-07-26T10:26:23.264Z,3852.00
2022-07-26T10:27:23.224Z,3784.00
2022-07-26T10:28:23.178Z,3624.00
2022-07-26T10:29:23.134Z,3472.00
2022-07-26T10:30:23.111Z,3408.00
2022-07-26T10:31:23.116Z,3288.00
2022-07-26T10:32:22.982Z,3268.00
2022-07-26T10:33:22.962Z,5232.00
2022-07-26T10:34:22.958Z,5236.00
2022-07-26T10:35:22.892Z,5084.00
2022-07-26T10:36:22.827Z,4924.00
2022-07-26T10:37:22.778Z,4928.00
2022-07-26T10:38:22.743Z,4940.00
2022-07-26T10:39:22.698Z,5100.00
2022-07-26T10:40:22.783Z,5456.00
2022-07-26T10:41:22.637Z,5700.00
2022-07-26T10:42:22.563Z,5852.00
2022-07-26T10:43:40.034Z,5876.00
2022-07-26T10:44:22.485Z,5732.00
2022-07-26T10:45:22.474Z,5888.00
2022-07-26T10:46:22.414Z,5908.00
2022-07-26T10:47:22.342Z,5920.00
2022-07-26T10:48:22.305Z,3532.00
2022-07-26T10:49:22.265Z,3440.00
2022-07-26T10:50:22.446Z,3472.00
2022-07-26T10:51:22.157Z,5908.00
2022-07-26T10:52:22.137Z,5136.00
2022-07-26T10:53:22.139Z,3904.00
2022-07-26T10:54:22.057Z,3536.00
2022-07-26T10:55:22.012Z,5396.00
2022-07-26T10:56:21.997Z,3240.00
2022-07-26T10:57:21.944Z,2992.00
2022-07-26T10:58:21.877Z,2908.00
2022-07-26T10:59:45.764Z,2880.00
2022-07-26T11:00:21.789Z,2884.00
2022-07-26T11:01:21.824Z,2872.00
2022-07-26T11:02:21.755Z,2852.00
2022-07-26T11:03:21.775Z,2832.00
2022-07-26T11:04:21.620Z,2768.00
2022-07-26T11:05:21.582Z,2728.00
2022-07-26T11:06:21.552Z,2628.00
2022-07-26T11:07:21.488Z,2548.00
2022-07-26T11:08:21.485Z,2380.00
2022-07-26T11:09:21.578Z,2196.00
2022-07-26T11:10:21.377Z,1976.00
2022-07-26T11:11:21.316Z,1744.00
2022-07-26T11:12:21.283Z,1532.00
2022-07-26T11:13:21.273Z,1356.00
2022-07-26T11:14:21.205Z,1216.00
2022-07-26T11:15:21.154Z,1096.00
2022-07-26T11:16:21.237Z,980.00
2022-07-26T11:17:21.085Z,876.00
2022-07-26T11:18:21.075Z,796.00
2022-07-26T11:19:21.043Z,740.00
2022-07-26T11:20:20.929Z,708.00
2022-07-26T11:21:20.886Z,672.00
2022-07-26T11:22:20.869Z,640.00
2022-07-26T11:23:20.851Z,620.00
2022-07-26T11:24:20.753Z,616.00
2022-07-26T11:25:20.729Z,616.00
2022-07-26T11:26:20.691Z,608.00
2022-07-26T11:27:20.656Z,612.00
2022-07-26T11:28:20.581Z,628.00
2022-07-26T11:29:22.664Z,656.00
2022-07-26T11:30:20.502Z,672.00
2022-07-26T11:31:20.492Z,692.00
2022-07-26T11:32:22.063Z,708.00
2022-07-26T11:33:20.386Z,736.00
2022-07-26T11:34:20.361Z,772.00
2022-07-26T11:35:20.293Z,804.00
2022-07-26T11:36:20.275Z,844.00
2022-07-26T11:37:20.510Z,904.00
2022-07-26T11:38:20.139Z,968.00
2022-07-26T11:39:20.117Z,1028.00
2022-07-26T11:40:20.070Z,1088.00
2022-07-26T11:41:20.022Z,1164.00
2022-07-26T11:42:20.000Z,1248.00
2022-07-26T11:43:19.914Z,1344.00
2022-07-26T11:44:19.887Z,1432.00
2022-07-26T11:45:19.838Z,1516.00
2022-07-26T11:46:19.849Z,1596.00
2022-07-26T11:47:19.791Z,1672.00
2022-07-26T11:48:19.736Z,1740.00
2022-07-26T11:49:19.676Z,1800.00
2022-07-26T11:50:22.940Z,1844.00
2022-07-26T11:51:19.584Z,1896.00
2022-07-26T11:52:24.349Z,1960.00
2022-07-26T11:53:19.528Z,2004.00
2022-07-26T11:54:19.429Z,2032.00
2022-07-26T11:55:19.395Z,2092.00
2022-07-26T11:56:19.342Z,2164.00
2022-07-26T11:57:19.340Z,2216.00
2022-07-26T11:58:19.250Z,2268.00
2022-07-26T11:59:19.215Z,2364.00
2022-07-26T12:00:19.206Z,2476.00
2022-07-26T12:01:19.123Z,2580.00
2022-07-26T12:02:19.103Z,2688.00
2022-07-26T12:03:19.048Z,2780.00
2022-07-26T12:04:19.096Z,2868.00
2022-07-26T12:05:19.585Z,2960.00
2022-07-26T12:06:18.979Z,3076.00
2022-07-26T12:07:18.858Z,3228.00
2022-07-26T12:08:19.131Z,3740.00
2022-07-26T12:09:18.833Z,3416.00
2022-07-26T12:10:18.729Z,3504.00
2022-07-26T12:11:18.695Z,3692.00
2022-07-26T12:12:18.690Z,3920.00
2022-07-26T12:13:18.593Z,4144.00
2022-07-26T12:14:18.873Z,4732.00
2022-07-26T12:15:18.778Z,4732.00
2022-07-26T12:16:18.488Z,4224.00
2022-07-26T12:17:18.410Z,4748.00
2022-07-26T12:18:18.397Z,3916.00
2022-07-26T12:19:18.329Z,3880.00
2022-07-26T12:20:18.291Z,3932.00
2022-07-26T12:21:18.247Z,6244.00
2022-07-26T12:22:18.195Z,6252.00
2022-07-26T12:23:18.206Z,6156.00
2022-07-26T12:24:18.112Z,4268.00
2022-07-26T12:25:18.094Z,6160.00
2022-07-26T12:26:20.926Z,6116.00
2022-07-26T12:27:17.990Z,6088.00
2022-07-26T12:28:17.963Z,6020.00